createdAt,value
2023-02-04T00:02:35.525Z,98702.53
2023-02-04T00:05:37.485Z,98707.91
2023-02-04T00:08:39.482Z,98706.53
2023-02-04T00:11:41.426Z,98701.56
2023-02-04T00:14:43.338Z,98696.56
2023-02-04T00:17:45.227Z,98693.78
2023-02-04T00:20:47.130Z,98706.41
2023-02-04T00:23:51.169Z,98712.31
2023-02-04T00:26:53.015Z,98715.41
2023-02-04T00:29:54.981Z,98714.97
2023-02-04T00:32:57.037Z,98699.28
2023-02-04T00:35:59.105Z,98694.94
2023-02-04T00:39:01.011Z,98708.47
2023-02-04T00:42:03.450Z,98721.25
2023-02-04T00:45:05.577Z,98709.78
2023-02-04T00:48:07.498Z,98712.31
2023-02-04T00:51:09.409Z,98708.03
2023-02-04T00:54:13.798Z,98705.25
2023-02-04T00:57:15.747Z,98706.84
2023-02-04T01:00:18.309Z,98706.81
2023-02-04T01:03:20.373Z,98696.84
2023-02-04T01:06:22.499Z,98693.81
2023-02-04T01:09:24.723Z,98688.44
2023-02-04T01:12:27.488Z,98690.28
2023-02-04T01:15:29.787Z,98678.00
2023-02-04T01:18:31.658Z,98668.41
2023-02-04T01:21:33.529Z,98670.09
2023-02-04T01:24:35.374Z,98672.84
2023-02-04T01:27:55.905Z,98669.34
2023-02-04T01:30:58.092Z,98658.09
2023-02-04T01:34:01.386Z,98662.72
2023-02-04T01:37:03.245Z,98656.19
2023-02-04T01:40:06.067Z,98654.50
2023-02-04T01:43:11.053Z,98670.94
2023-02-04T01:46:13.341Z,98665.88
2023-02-04T01:49:15.578Z,98661.22
2023-02-04T01:52:18.022Z,98663.06
2023-02-04T01:55:24.037Z,98670.81
2023-02-04T01:58:26.156Z,98650.97
2023-02-04T02:01:44.748Z,98656.28
2023-02-04T02:04:46.679Z,98652.09
2023-02-04T02:07:50.063Z,98657.84
2023-02-04T02:10:52.978Z,98666.28
2023-02-04T02:13:55.289Z,98671.78
2023-02-04T02:16:57.484Z,98672.28
2023-02-04T02:19:59.682Z,98664.03
2023-02-04T02:23:11.529Z,98658.34
2023-02-04T02:26:15.110Z,98664.72
2023-02-04T02:29:17.078Z,98661.81
2023-02-04T02:32:19.449Z,98656.31
2023-02-04T02:35:21.636Z,98673.28
2023-02-04T02:38:24.738Z,98688.47
2023-02-04T02:41:26.719Z,98687.81
2023-02-04T02:44:29.792Z,98682.53
2023-02-04T02:47:32.818Z,98672.63
2023-02-04T02:50:34.814Z,98658.38
2023-02-04T02:53:36.835Z,98646.47
2023-02-04T02:56:38.994Z,98654.91
2023-02-04T02:59:42.538Z,98659.81
2023-02-04T03:02:45.992Z,98658.50
2023-02-04T03:05:52.350Z,98654.63
2023-02-04T03:08:56.938Z,98667.38
2023-02-04T03:11:58.949Z,98664.84
2023-02-04T03:15:00.837Z,98660.25
2023-02-04T03:18:03.334Z,98658.25
2023-02-04T03:21:06.805Z,98649.66
2023-02-04T03:24:09.471Z,98650.44
2023-02-04T03:27:15.033Z,98645.78
2023-02-04T03:30:17.260Z,98636.13
2023-02-04T03:33:19.213Z,98639.41
2023-02-04T03:36:21.059Z,98625.91
2023-02-04T03:39:23.076Z,98634.47
2023-02-04T03:42:25.726Z,98624.16
2023-02-04T03:45:32.398Z,98621.09
2023-02-04T03:48:36.819Z,98618.00
2023-02-04T03:51:38.677Z,98614.84
2023-02-04T03:54:40.566Z,98609.06
2023-02-04T03:57:42.442Z,98613.78
2023-02-04T04:00:44.450Z,98612.56
2023-02-04T04:03:46.410Z,98602.03
2023-02-04T04:06:48.298Z,98604.66
2023-02-04T04:09:50.220Z,98616.47
2023-02-04T04:12:52.095Z,98618.09
2023-02-04T04:15:53.970Z,98615.72
2023-02-04T04:18:56.227Z,98615.38
2023-02-04T04:21:58.086Z,98610.63
2023-02-04T04:24:59.962Z,98598.69
2023-02-04T04:28:01.922Z,98603.44
2023-02-04T04:31:04.359Z,98602.75
2023-02-04T04:34:06.359Z,98606.78
2023-02-04T04:37:08.609Z,98598.22
2023-02-04T04:40:12.730Z,98591.28
2023-02-04T04:43:14.729Z,98597.78
2023-02-04T04:46:16.667Z,98605.03
2023-02-04T04:49:18.967Z,98599.25
2023-02-04T04:52:20.806Z,98599.34
2023-02-04T04:55:22.667Z,98601.31
2023-02-04T04:58:24.582Z,98599.16
2023-02-04T05:01:26.474Z,98598.09
2023-02-04T05:04:28.376Z,98599.03
2023-02-04T05:07:30.251Z,98596.19
2023-02-04T05:10:32.504Z,98598.41
2023-02-04T05:13:34.744Z,98583.56
2023-02-04T05:16:36.714Z,98600.09
2023-02-04T05:19:38.697Z,98598.41
2023-02-04T05:22:40.498Z,98601.47
2023-02-04T05:25:42.435Z,98612.41
2023-02-04T05:28:44.361Z,98616.69
2023-02-04T05:31:46.456Z,98620.78
2023-02-04T05:34:48.337Z,98613.78
2023-02-04T05:37:50.361Z,98620.00
2023-02-04T05:40:52.297Z,98620.16
2023-02-04T05:43:54.146Z,98636.53
2023-02-04T05:46:56.142Z,98635.09
2023-02-04T05:49:58.020Z,98635.28
2023-02-04T05:52:59.964Z,98641.41
2023-02-04T05:56:02.337Z,98647.91
2023-02-04T05:59:36.375Z,98657.06
2023-02-04T06:02:38.296Z,98661.97
2023-02-04T06:05:40.624Z,98655.25
2023-02-04T06:08:42.549Z,98678.59
2023-02-04T06:11:44.347Z,98675.06
2023-02-04T06:14:46.230Z,98689.75
2023-02-04T06:17:48.146Z,98685.69
2023-02-04T06:20:49.993Z,98687.75
2023-02-04T06:23:51.890Z,98691.00
2023-02-04T06:26:53.717Z,98699.88
2023-02-04T06:29:55.595Z,98697.53
2023-02-04T06:32:57.603Z,98700.06
2023-02-04T06:35:59.456Z,98711.06
2023-02-04T06:39:01.369Z,98710.00
2023-02-04T06:42:03.228Z,98696.91
2023-02-04T06:45:05.715Z,98714.19
2023-02-04T06:48:07.636Z,98728.97
2023-02-04T06:51:09.631Z,98731.59
2023-02-04T06:54:11.492Z,98740.38
2023-02-04T06:57:13.359Z,98741.47
2023-02-04T07:00:15.630Z,98755.53
2023-02-04T07:03:17.509Z,98765.38
2023-02-04T07:06:19.494Z,98767.81
2023-02-04T07:09:21.627Z,98779.28
2023-02-04T07:12:23.709Z,98784.13
2023-02-04T07:15:25.828Z,98790.16
2023-02-04T07:18:27.725Z,98785.69
2023-02-04T07:21:29.894Z,98776.63
2023-02-04T07:24:31.780Z,98785.22
2023-02-04T07:27:33.717Z,98779.94
2023-02-04T07:30:40.722Z,98780.59
2023-02-04T07:33:42.685Z,98781.38
2023-02-04T07:36:44.857Z,98776.75
2023-02-04T07:39:46.839Z,98787.59
2023-02-04T07:42:48.719Z,98785.50
2023-02-04T07:45:53.405Z,98796.06
2023-02-04T07:48:55.690Z,98796.91
2023-02-04T07:51:58.147Z,98805.59
2023-02-04T07:55:00.004Z,98822.31
2023-02-04T07:58:02.094Z,98826.88
2023-02-04T08:01:04.240Z,98834.41
2023-02-04T08:04:06.099Z,98845.97
2023-02-04T08:07:08.183Z,98864.59
2023-02-04T08:10:11.162Z,98880.91
2023-02-04T08:13:13.200Z,98886.25
2023-02-04T08:16:15.006Z,98899.94
2023-02-04T08:19:19.200Z,98909.16
2023-02-04T08:22:21.041Z,98923.16
2023-02-04T08:25:23.171Z,98966.25
2023-02-04T08:28:25.370Z,98962.16
2023-02-04T08:31:27.359Z,98989.88
2023-02-04T08:34:29.548Z,98997.25
2023-02-04T08:37:31.404Z,99022.06
2023-02-04T08:40:34.841Z,99019.47
2023-02-04T08:43:37.191Z,99011.31
2023-02-04T08:47:18.890Z,99012.09
2023-02-04T08:51:20.674Z,99040.91
2023-02-04T08:55:22.302Z,99049.78
2023-02-04T08:58:45.151Z,99071.47
2023-02-04T09:01:50.990Z,99079.88
2023-02-04T09:04:53.792Z,99101.63
2023-02-04T09:07:55.667Z,99100.22
2023-02-04T09:10:57.626Z,99100.06
2023-02-04T09:13:59.585Z,99122.50
2023-02-04T09:17:01.592Z,99115.25
2023-02-04T09:20:04.442Z,99160.47
2023-02-04T09:23:10.614Z,99170.88
2023-02-04T09:26:13.394Z,99171.75
2023-02-04T09:29:15.783Z,99167.78
2023-02-04T09:32:19.363Z,99202.91
2023-02-04T09:35:21.281Z,99201.09
2023-02-04T09:38:24.279Z,99235.97
2023-02-04T09:41:26.710Z,99253.22
2023-02-04T09:44:29.311Z,99281.19
2023-02-04T09:47:31.413Z,99294.97
2023-02-04T09:50:34.344Z,99272.81
2023-02-04T09:53:37.354Z,99267.50
2023-02-04T09:56:39.819Z,99290.44
2023-02-04T09:59:43.776Z,99306.44
2023-02-04T10:02:46.060Z,99308.69
2023-02-04T10:05:49.157Z,99321.38
2023-02-04T10:08:52.091Z,99321.97
2023-02-04T10:11:54.070Z,99323.78
2023-02-04T10:14:56.070Z,99363.63
2023-02-04T10:18:03.580Z,99357.94
2023-02-04T10:21:36.715Z,99365.91
2023-02-04T10:24:38.638Z,99459.06
2023-02-04T10:27:57.620Z,99405.47
2023-02-04T10:31:00.127Z,99433.88
2023-02-04T10:34:32.923Z,99397.53
2023-02-04T10:37:34.820Z,99408.16
2023-02-04T10:40:37.175Z,99432.75
2023-02-04T10:43:39.305Z,99424.19
2023-02-04T10:46:48.529Z,99437.22
2023-02-04T10:50:15.761Z,99460.00
2023-02-04T10:53:41.373Z,99479.06
2023-02-04T10:56:43.622Z,99477.84
2023-02-04T10:59:48.164Z,99498.59
2023-02-04T11:03:07.395Z,99497.69
2023-02-04T11:06:16.386Z,99491.72
2023-02-04T11:09:19.089Z,99546.78
2023-02-04T11:12:47.954Z,99531.09
2023-02-04T11:16:16.476Z,99546.88
2023-02-04T11:19:32.825Z,99551.84
2023-02-04T11:22:47.025Z,99576.44
2023-02-04T11:25:49.068Z,99593.34
2023-02-04T11:29:00.150Z,99582.63
2023-02-04T11:32:07.544Z,99595.16
2023-02-04T11:35:12.088Z,99610.41
2023-02-04T11:38:27.150Z,99617.91
2023-02-04T11:41:30.856Z,99636.91
2023-02-04T11:44:33.891Z,99628.63
2023-02-04T11:47:36.678Z,99653.78
2023-02-04T11:50:39.053Z,99647.16
2023-02-04T11:53:41.353Z,99677.28
2023-02-04T11:56:43.253Z,99685.47
2023-02-04T11:59:45.348Z,99688.50
2023-02-04T12:02:59.337Z,99676.63
2023-02-04T12:06:01.711Z,99693.84
2023-02-04T12:09:09.576Z,99751.53
2023-02-04T12:12:11.452Z,99706.00
2023-02-04T12:15:24.104Z,99713.41
2023-02-04T12:18:29.324Z,99720.84
2023-02-04T12:21:31.266Z,99731.88
2023-02-04T12:24:33.162Z,99759.81
2023-02-04T12:27:35.143Z,99788.91
2023-02-04T12:30:37.336Z,99772.78
2023-02-04T12:33:39.294Z,99815.84
2023-02-04T12:36:41.187Z,99808.47
2023-02-04T12:39:43.052Z,99807.81
2023-02-04T12:42:45.268Z,99812.88
2023-02-04T12:45:49.848Z,99825.47
2023-02-04T12:48:52.127Z,99804.25
2023-02-04T12:51:58.897Z,99801.00
2023-02-04T12:55:01.356Z,99839.22
2023-02-04T12:58:03.816Z,99832.22
2023-02-04T13:01:06.037Z,99843.16
2023-02-04T13:04:08.076Z,99830.69
2023-02-04T13:07:10.384Z,99835.75
2023-02-04T13:10:13.591Z,99856.00
2023-02-04T13:13:15.422Z,99850.22
2023-02-04T13:16:19.472Z,99847.72
2023-02-04T13:19:24.975Z,99858.72
2023-02-04T13:22:27.397Z,99872.19
2023-02-04T13:25:29.418Z,99859.47
2023-02-04T13:28:31.369Z,99881.28
2023-02-04T13:31:33.285Z,99901.81
2023-02-04T13:34:35.324Z,99889.22
2023-02-04T13:37:38.334Z,99910.16
2023-02-04T13:40:40.352Z,99935.63
2023-02-04T13:43:42.456Z,99920.22
2023-02-04T13:46:44.366Z,99933.19
2023-02-04T13:49:46.327Z,99942.38
2023-02-04T13:52:48.146Z,99945.72
2023-02-04T13:55:50.042Z,99953.34
2023-02-04T13:58:51.994Z,99970.59
2023-02-04T14:01:54.004Z,99968.72
2023-02-04T14:04:57.708Z,99985.53
2023-02-04T14:07:59.883Z,99983.81
2023-02-04T14:11:01.866Z,99984.78
2023-02-04T14:14:03.869Z,99977.13
2023-02-04T14:17:05.768Z,99993.25
2023-02-04T14:20:08.470Z,99992.72
2023-02-04T14:23:11.982Z,99995.94
2023-02-04T14:26:13.894Z,100008.44
2023-02-04T14:29:16.618Z,100012.03
2023-02-04T14:32:18.480Z,100037.53
2023-02-04T14:35:20.802Z,100038.63
2023-02-04T14:38:22.893Z,100062.25
2023-02-04T14:41:26.426Z,100049.56
2023-02-04T14:44:28.399Z,100060.13
2023-02-04T14:47:30.360Z,100075.50
2023-02-04T14:50:33.348Z,100078.78
2023-02-04T14:53:35.413Z,100073.94
2023-02-04T14:56:37.495Z,100070.44
2023-02-04T14:59:39.782Z,100077.22
2023-02-04T15:02:42.579Z,100087.69
2023-02-04T15:05:44.750Z,100091.06
2023-02-04T15:08:46.599Z,100097.94
2023-02-04T15:11:48.397Z,100104.78
2023-02-04T15:14:50.250Z,100113.31
2023-02-04T15:18:24.385Z,100119.19
2023-02-04T15:21:27.395Z,100116.66
2023-02-04T15:24:30.117Z,100126.78
2023-02-04T15:27:32.051Z,100130.06
2023-02-04T15:30:34.445Z,100140.25
2023-02-04T15:33:36.671Z,100146.03
2023-02-04T15:36:38.697Z,100149.38
2023-02-04T15:39:40.640Z,100145.19
2023-02-04T15:42:43.059Z,100140.88
2023-02-04T15:45:45.008Z,100145.13
2023-02-04T15:48:47.098Z,100152.84
2023-02-04T15:51:49.296Z,100159.56
2023-02-04T15:54:51.667Z,100185.75
2023-02-04T15:57:53.537Z,100189.09
2023-02-04T16:00:55.494Z,100184.81
2023-02-04T16:04:26.014Z,100208.50
2023-02-04T16:07:27.891Z,100225.34
2023-02-04T16:10:30.483Z,100232.94
2023-02-04T16:13:32.840Z,100225.34
2023-02-04T16:16:34.778Z,100240.53
2023-02-04T16:19:36.719Z,100275.13
2023-02-04T16:22:38.577Z,100258.19
2023-02-04T16:25:40.560Z,100261.63
2023-02-04T16:28:42.542Z,100269.25
2023-02-04T16:31:44.710Z,100269.25
2023-02-04T16:34:46.664Z,100272.56
2023-02-04T16:37:48.502Z,100282.81
2023-02-04T16:40:50.586Z,100303.94
2023-02-04T16:43:52.627Z,100304.81
2023-02-04T16:46:55.082Z,100312.41
2023-02-04T16:50:00.870Z,100309.06
2023-02-04T16:53:03.442Z,100314.94
2023-02-04T16:56:05.681Z,100317.50
2023-02-04T16:59:07.655Z,100326.78
2023-02-04T17:02:10.714Z,100316.63
2023-02-04T17:05:12.952Z,100331.03
2023-02-04T17:08:15.229Z,100331.06
2023-02-04T17:11:29.143Z,100350.53
2023-02-04T17:14:31.871Z,100340.41
2023-02-04T17:17:33.878Z,100353.06
2023-02-04T17:20:36.515Z,100358.97
2023-02-04T17:23:38.523Z,100361.56
2023-02-04T17:26:40.500Z,100355.66
2023-02-04T17:29:42.598Z,100343.88
2023-02-04T17:32:45.597Z,100355.66
2023-02-04T17:35:47.548Z,100354.00
2023-02-04T17:38:50.302Z,100355.69
2023-02-04T17:41:52.745Z,100356.53
2023-02-04T17:44:56.666Z,100354.84
2023-02-04T17:47:58.811Z,100364.94
2023-02-04T17:51:00.988Z,100364.13
2023-02-04T17:54:03.072Z,100354.84
2023-02-04T17:57:18.101Z,100364.94
2023-02-04T18:00:23.028Z,100372.53
2023-02-04T18:03:28.333Z,100375.09
2023-02-04T18:06:30.654Z,100380.16
2023-02-04T18:09:32.816Z,100386.06
2023-02-04T18:12:35.276Z,100389.44
2023-02-04T18:15:37.649Z,100381.81
2023-02-04T18:18:41.027Z,100375.09
2023-02-04T18:21:43.522Z,100386.03
2023-02-04T18:24:48.850Z,100397.84
2023-02-04T18:27:52.518Z,100397.84
2023-02-04T18:31:00.249Z,100403.78
2023-02-04T18:34:34.090Z,100405.47
2023-02-04T18:37:42.637Z,100391.13
2023-02-04T18:40:44.558Z,100415.59
2023-02-04T18:43:51.261Z,100426.53
2023-02-04T18:46:54.394Z,100439.19
2023-02-04T18:49:56.602Z,100414.75
2023-02-04T18:53:19.610Z,100425.69
2023-02-04T18:56:21.836Z,100431.59
2023-02-04T18:59:28.078Z,100430.75
2023-02-04T19:02:39.489Z,100437.50
2023-02-04T19:05:50.946Z,100429.91
2023-02-04T19:08:59.518Z,100435.81
2023-02-04T19:12:19.558Z,100453.53
2023-02-04T19:15:37.173Z,100445.09
2023-02-04T19:18:42.659Z,100457.72
2023-02-04T19:21:45.515Z,100453.50
2023-02-04T19:24:48.626Z,100464.31
2023-02-04T19:27:57.221Z,100460.13
2023-02-04T19:31:04.779Z,100461.06
2023-02-04T19:34:23.457Z,100453.44
2023-02-04T19:37:46.832Z,100457.66
2023-02-04T19:40:51.383Z,100448.41
2023-02-04T19:44:35.246Z,100454.31
2023-02-04T19:47:42.296Z,100483.78
2023-02-04T19:50:44.705Z,100449.25
2023-02-04T19:53:53.961Z,100449.22
2023-02-04T19:56:56.137Z,100444.13
2023-02-04T19:59:58.501Z,100454.28
2023-02-04T20:03:01.562Z,100465.22
2023-02-04T20:06:09.646Z,100461.00
2023-02-04T20:09:29.116Z,100473.59
2023-02-04T20:12:33.194Z,100479.47
2023-02-04T20:15:35.501Z,100476.91
2023-02-04T20:18:37.710Z,100475.25
2023-02-04T20:21:39.918Z,100470.22
2023-02-04T20:24:43.159Z,100465.16
2023-02-04T20:27:46.755Z,100487.94
2023-02-04T20:30:50.604Z,100476.97
2023-02-04T20:33:59.871Z,100474.47
2023-02-04T20:37:01.758Z,100476.03
2023-02-04T20:40:21.060Z,100487.78
2023-02-04T20:43:24.234Z,100486.00
2023-02-04T20:46:26.668Z,100491.19
2023-02-04T20:49:28.831Z,100494.53
2023-02-04T20:52:40.112Z,100504.72
2023-02-04T20:55:48.796Z,100509.63
2023-02-04T20:58:55.724Z,100492.91
2023-02-04T21:01:58.150Z,100513.91
2023-02-04T21:05:01.944Z,100511.38
2023-02-04T21:08:21.409Z,100524.88
2023-02-04T21:11:24.601Z,100523.06
2023-02-04T21:14:28.132Z,100528.94
2023-02-04T21:17:30.128Z,100527.97
2023-02-04T21:20:34.674Z,100538.97
2023-02-04T21:23:37.151Z,100544.09
2023-02-04T21:26:39.669Z,100543.28
2023-02-04T21:29:41.531Z,100547.50
2023-02-04T21:32:44.434Z,100543.31
2023-02-04T21:35:46.391Z,100546.59
2023-02-04T21:38:48.240Z,100549.75
2023-02-04T21:42:10.293Z,100556.63
2023-02-04T21:45:12.464Z,100560.81
2023-02-04T21:48:14.884Z,100564.13
2023-02-04T21:51:16.787Z,100568.41
2023-02-04T21:54:18.952Z,100575.84
2023-02-04T21:57:20.831Z,100585.31
2023-02-04T22:00:23.889Z,100579.41
2023-02-04T22:03:25.796Z,100592.94
2023-02-04T22:06:27.769Z,100606.22
2023-02-04T22:09:29.706Z,100608.88
2023-02-04T22:12:32.203Z,100598.69
2023-02-04T22:15:34.360Z,100602.94
2023-02-04T22:18:36.750Z,100612.28
2023-02-04T22:21:38.662Z,100617.22
2023-02-04T22:24:40.667Z,100615.53
2023-02-04T22:27:42.693Z,100628.09
2023-02-04T22:30:46.873Z,100618.75
2023-02-04T22:33:48.870Z,100613.75
2023-02-04T22:36:50.717Z,100618.81
2023-02-04T22:39:52.929Z,100638.03
2023-02-04T22:42:54.867Z,100648.13
2023-02-04T22:45:56.789Z,100653.19
2023-02-04T22:48:58.763Z,100648.88
2023-02-04T22:52:00.854Z,100653.06
2023-02-04T22:55:02.757Z,100648.09
2023-02-04T22:58:04.661Z,100648.94
2023-02-04T23:01:07.203Z,100649.00
2023-02-04T23:04:09.053Z,100635.41
2023-02-04T23:07:12.297Z,100643.78
2023-02-04T23:10:14.326Z,100650.66
2023-02-04T23:13:17.062Z,100650.47
2023-02-04T23:16:19.588Z,100635.34
2023-02-04T23:19:21.938Z,100652.28
2023-02-04T23:22:23.893Z,100655.38
2023-02-04T23:25:25.906Z,100653.06
2023-02-04T23:28:28.194Z,100652.91
2023-02-04T23:31:30.034Z,100648.75
2023-02-04T23:34:31.969Z,100647.78
2023-02-04T23:37:34.271Z,100651.22
2023-02-04T23:40:36.442Z,100660.09
2023-02-04T23:43:38.367Z,100657.75
2023-02-04T23:46:40.672Z,100657.75
2023-02-04T23:49:42.759Z,100662.75
2023-02-04T23:52:44.813Z,100656.22
2023-02-04T23:55:46.746Z,100665.44
2023-02-04T23:58:48.733Z,100669.44
